Time;durP1;ratioP1;P1;durP2;ratioP2;P2;SDS_P1;SDS_P2;PMS_P1;PMS_P2;Temp;Humidity;BMP_temperature;BMP_pressure;BME280_temperature;BME280_humidity;BME280_pressure;Samples;Min_cycle;Max_cycle;Signal;HPM_P1;HPM_P2
2022/02/12 00:12:38;;;;;;;;;;;;;;;;;;;;;
2022/02/12 05:32:54;;;;;;;;;;;;;;;;;;;;;
2022/02/12 07:26:28;;;;;;;24.48;10.35;;;;;;;-1.56;100.00;101997.44;6283374;22;20092;-90
2022/02/12 07:33:27;;;;;;;;;;;;;;;;;;;;;
2022/02/12 07:36:02;;;;;;;21.48;9.52;;;;;;;-1.48;100.00;101962.19;6154635;23;20020;-91
2022/02/12 07:53:03;;;;;;;21.92;9.93;;;;;;;-0.74;98.93;102016.09;6248522;23;20392;-90
2022/02/12 07:55:52;;;;;;;20.25;9.73;;;;;;;-0.70;99.64;102004.06;6221200;23;20027;-87
2022/02/12 07:58:22;;;;;;;24.38;10.73;;;;;;;-0.52;98.59;102016.63;6245458;23;20835;-92
2022/02/12 08:00:49;;;;;;;20.55;8.55;;;;;;;-0.49;97.83;101999.38;6242598;23;20059;-87
2022/02/12 08:03:19;;;;;;;20.33;9.95;;;;;;;-0.54;97.54;101982.78;6245274;23;20055;-88
2022/02/12 08:06:01;;;;;;;22.52;10.52;;;;;;;-0.54;97.09;101959.34;6245144;23;20028;-89
2022/02/12 08:08:29;;;;;;;23.15;11.27;;;;;;;-0.31;96.43;101987.59;6245326;23;20020;-90
2022/02/12 08:13:45;;;;;;;24.60;11.23;;;;;;;-0.20;95.41;101974.00;6245111;23;20012;-89
2022/02/12 08:16:14;;;;;;;26.73;11.25;;;;;;;-0.29;96.00;101946.88;6247549;23;20081;-89
2022/02/12 08:18:48;;;;;;;25.20;11.30;;;;;;;0.17;94.92;102004.31;6243882;23;20020;-89
2022/02/12 08:21:17;;;;;;;17.98;9.82;;;;;;;0.31;95.17;102009.84;6244743;23;20106;-88
2022/02/12 08:23:44;;;;;;;27.40;10.10;;;;;;;0.41;94.38;102003.06;6246249;23;20026;-92
2022/02/12 08:26:21;;;;;;;;;;;;;;;;;;;;;
2022/02/12 08:28:53;;;;;;;21.50;10.05;;;;;;;0.49;92.76;101991.94;6246583;23;20026;-91
2022/02/12 08:31:20;;;;;;;22.75;9.95;;;;;;;0.40;92.57;101943.97;6244962;23;20023;-90
2022/02/12 08:33:56;;;;;;;17.42;9.27;;;;;;;0.87;94.21;101974.41;6244072;23;20031;-91
2022/02/12 08:36:27;;;;;;;21.55;9.95;;;;;;;1.30;94.60;101975.13;6243723;23;20020;-94
2022/02/12 08:39:07;;;;;;;22.73;8.52;;;;;;;1.52;89.94;101930.22;6244748;23;20023;-90
2022/02/12 08:41:55;;;;;;;17.73;8.32;;;;;;;2.17;84.41;101968.53;6242725;23;20016;-90
2022/02/12 08:44:23;;;;;;;14.30;6.97;;;;;;;2.50;80.89;101955.00;6246404;23;20104;-90
2022/02/12 08:46:53;;;;;;;14.07;7.22;;;;;;;2.74;77.99;101963.06;6244807;23;20036;-90
2022/02/12 08:49:27;;;;;;;15.10;7.03;;;;;;;3.13;76.85;101996.59;6246370;23;20012;-89
2022/02/12 08:51:59;;;;;;;19.38;7.55;;;;;;;3.13;76.06;101973.94;6244270;23;20068;-90
2022/02/12 08:54:33;;;;;;;15.02;6.85;;;;;;;3.38;75.73;101987.19;6253096;23;20046;-91
2022/02/12 08:57:04;;;;;;;14.07;6.65;;;;;;;3.53;73.50;101985.56;6259432;23;20027;-93
2022/02/12 08:59:40;;;;;;;17.40;7.22;;;;;;;3.44;75.15;101979.41;6252485;23;20028;-90
2022/02/12 09:02:32;;;;;;;18.98;7.60;;;;;;;3.23;73.47;101934.72;6246135;23;20016;-90
2022/02/12 09:05:07;;;;;;;15.77;7.00;;;;;;;3.41;73.84;101963.66;6247413;23;20126;-89
2022/02/12 09:07:42;;;;;;;14.93;6.45;;;;;;;3.39;74.27;101974.13;6246151;23;20016;-89
2022/02/12 09:10:09;;;;;;;13.45;6.80;;;;;;;3.60;74.50;101986.50;6243643;23;20379;-90
2022/02/12 09:12:59;;;;;;;15.80;6.90;;;;;;;3.81;74.58;101985.75;6217063;23;20020;-89
2022/02/12 09:15:29;;;;;;;16.80;7.30;;;;;;;4.07;73.90;101991.16;6246818;23;20024;-87
2022/02/12 09:18:02;;;;;;;19.55;7.78;;;;;;;4.04;71.55;101942.22;6248251;23;20408;-92
2022/02/12 09:20:35;;;;;;;13.13;7.18;;;;;;;4.08;70.66;101946.59;6243538;23;20448;-89
2022/02/12 09:23:12;;;;;;;13.90;7.20;;;;;;;4.19;71.11;101933.53;6247056;23;20020;-95
2022/02/12 09:26:04;;;;;;;12.45;7.00;;;;;;;4.39;68.62;101916.13;6227299;23;20025;-92
2022/02/12 09:28:46;;;;;;;20.92;7.10;;;;;;;4.20;69.02;101901.19;6245655;23;20016;-93
2022/02/12 09:31:19;;;;;;;13.68;7.13;;;;;;;3.90;69.05;101895.84;6249153;23;20016;-94
2022/02/12 09:33:49;;;;;;;17.98;7.43;;;;;;;3.90;69.52;101916.81;6245557;23;20020;-93
2022/02/12 09:36:18;;;;;;;13.32;6.68;;;;;;;3.93;71.04;101904.59;6247637;23;20078;-89
2022/02/12 09:38:45;;;;;;;9.88;4.57;;;;;;;4.54;69.88;101958.13;6247875;23;20084;-89
2022/02/12 09:41:16;;;;;;;11.77;5.10;;;;;;;4.46;68.90;101888.13;6246485;23;20305;-91
2022/02/12 09:43:43;;;;;;;12.38;4.82;;;;;;;5.15;67.12;101936.31;6245939;23;20064;-94
2022/02/12 09:46:28;;;;;;;7.55;3.70;;;;;;;5.55;65.96;101947.66;6247139;23;20473;-95
2022/02/12 09:48:59;;;;;;;12.95;4.55;;;;;;;5.75;63.41;101918.72;6246079;23;20055;-91
2022/02/12 09:51:36;;;;;;;12.43;3.95;;;;;;;5.94;61.17;101875.75;6243576;23;20016;-90
2022/02/12 09:54:12;;;;;;;9.75;4.00;;;;;;;6.26;59.78;101878.22;6246758;23;20016;-90
2022/02/12 09:56:50;;;;;;;13.25;4.22;;;;;;;6.67;59.07;101904.25;6249697;23;20023;-90
2022/02/12 09:59:28;;;;;;;9.18;4.40;;;;;;;7.10;58.67;101922.34;6245838;23;20028;-92
2022/02/12 10:01:55;;;;;;;8.60;3.92;;;;;;;7.37;56.76;101908.94;6245099;23;20016;-93
2022/02/12 10:04:25;;;;;;;8.77;3.63;;;;;;;7.53;55.34;101878.03;6244717;23;20012;-91
2022/02/12 10:07:08;;;;;;;9.05;4.43;;;;;;;8.09;54.81;101916.91;6242823;23;20020;-92
2022/02/12 10:09:39;;;;;;;12.15;3.88;;;;;;;8.19;53.14;101905.34;6244953;23;20024;-89
2022/02/12 10:12:20;;;;;;;9.88;3.92;;;;;;;8.64;52.59;101927.66;6242662;23;20111;-94
2022/02/12 10:15:00;;;;;;;11.88;4.00;;;;;;;8.97;50.59;101881.31;6221517;23;20020;-91
2022/02/12 10:17:31;;;;;;;8.98;3.83;;;;;;;8.92;50.10;101890.25;6244113;23;20028;-90
2022/02/12 10:20:10;;;;;;;13.85;4.30;;;;;;;8.82;51.26;101900.06;6245974;23;20022;-93
2022/02/12 10:22:52;;;;;;;11.35;4.20;;;;;;;9.06;51.97;101890.88;6251607;23;20012;-95
2022/02/12 10:25:21;;;;;;;8.13;3.70;;;;;;;10.08;50.09;101910.97;6246768;23;20016;-91
2022/02/12 10:27:52;;;;;;;10.15;4.15;;;;;;;10.46;46.72;101856.34;6219110;23;20044;-89
2022/02/12 10:30:24;;;;;;;8.18;3.55;;;;;;;11.32;45.27;101908.97;6245979;23;20395;-91
2022/02/12 10:33:03;;;;;;;7.40;3.60;;;;;;;10.83;44.77;101867.81;6245664;23;20070;-89
2022/02/12 10:35:45;;;;;;;9.25;3.58;;;;;;;10.50;45.92;101852.72;6246876;23;20020;-94
2022/02/12 10:38:38;;;;;;;;;;;;;;;;;;;;;
2022/02/12 10:41:33;;;;;;;8.93;3.83;;;;;;;9.55;47.88;101887.34;6264246;23;20020;-91
2022/02/12 10:44:13;;;;;;;7.55;4.00;;;;;;;8.64;49.98;101827.31;6260501;22;20031;-91
2022/02/12 10:46:44;;;;;;;12.93;4.43;;;;;;;8.01;52.46;101826.47;6262434;23;20043;-91
2022/02/12 10:49:11;;;;;;;10.57;3.80;;;;;;;7.92;52.52;101855.59;6251752;23;20024;-90
2022/02/12 10:51:44;;;;;;;9.23;3.90;;;;;;;8.14;53.64;101903.69;6251371;23;20086;-88
2022/02/12 10:54:12;;;;;;;10.00;3.92;;;;;;;8.04;52.72;101882.66;6249454;23;20043;-90
2022/02/12 10:56:52;;;;;;;9.27;3.97;;;;;;;7.94;53.52;101886.31;6245234;23;20466;-90
2022/02/12 10:59:23;;;;;;;9.85;3.78;;;;;;;7.56;54.36;101860.41;6246743;23;20319;-91
2022/02/12 11:01:51;;;;;;;8.00;3.92;;;;;;;7.08;55.84;101834.59;6242282;23;20435;-91
2022/02/12 11:04:24;;;;;;;8.00;3.55;;;;;;;7.24;57.10;101879.19;6253587;23;20016;-90
2022/02/12 11:07:29;;;;;;;8.48;3.97;;;;;;;7.12;56.99;101878.44;6258095;23;20340;-91
2022/02/12 11:10:02;;;;;;;11.38;4.40;;;;;;;6.94;57.18;101866.28;6259917;23;20046;-88
2022/02/12 11:12:31;;;;;;;7.22;3.42;;;;;;;6.59;58.46;101811.31;6261371;23;20027;-89
2022/02/12 11:15:07;;;;;;;10.65;3.47;;;;;;;6.69;57.68;101819.13;6261168;23;20027;-90
2022/02/12 11:18:06;;;;;;;;;;;;;;;6.84;57.84;101846.22;6265180;23;20020;-91
2022/02/12 11:20:35;;;;;;;9.88;3.47;;;;;;;6.58;58.12;101818.34;6267807;22;19934;-90
2022/02/12 11:23:27;;;;;;;7.70;4.15;;;;;;;6.59;58.20;101792.91;6262697;23;20024;-89
2022/02/12 11:26:42;;;;;;;6.28;2.95;;;;;;;6.67;58.46;101785.81;6254155;23;20104;-94
2022/02/12 11:29:30;;;;;;;7.25;3.20;;;;;;;7.09;57.11;101837.19;6251426;23;20027;-89
2022/02/12 11:32:19;;;;;;;7.95;3.35;;;;;;;6.92;56.98;101826.84;6252596;23;20016;-93
2022/02/12 11:34:55;;;;;;;7.18;3.25;;;;;;;6.88;56.82;101818.97;6250418;23;20021;-90
2022/02/12 11:37:37;;;;;;;8.32;3.40;;;;;;;6.82;56.57;101797.94;6247972;23;20471;-92
2022/02/12 11:40:25;;;;;;;6.18;3.47;;;;;;;6.74;57.06;101795.41;6249617;23;20035;-90
2022/02/12 11:43:04;;;;;;;8.93;3.22;;;;;;;6.68;57.49;101788.41;6248653;23;20016;-90
2022/02/12 11:45:41;;;;;;;6.82;3.00;;;;;;;6.44;57.63;101756.19;6249275;23;20503;-90
2022/02/12 11:48:19;;;;;;;8.85;3.13;;;;;;;6.44;57.40;101756.19;6250666;23;20016;-90
2022/02/12 11:50:50;;;;;;;9.02;3.13;;;;;;;6.45;57.71;101764.06;6254200;23;20019;-91
2022/02/12 11:53:48;;;;;;;7.43;2.83;;;;;;;6.54;57.10;101745.56;6249643;23;20039;-92
2022/02/12 11:56:20;;;;;;;5.80;2.40;;;;;;;6.92;56.60;101765.41;6253842;23;20020;-88
2022/02/12 11:58:51;;;;;;;5.68;3.10;;;;;;;6.96;55.58;101746.88;6248283;23;20391;-91
2022/02/12 12:01:22;;;;;;;9.90;3.38;;;;;;;7.15;54.33;101751.97;6248219;23;20575;-90
2022/02/12 12:04:15;;;;;;;10.63;3.42;;;;;;;6.98;54.93;101718.78;6247651;23;20034;-91
2022/02/12 12:07:09;;;;;;;8.20;2.72;;;;;;;6.80;54.32;101703.19;6250488;23;20047;-90
2022/02/12 12:10:05;;;;;;;6.75;2.88;;;;;;;6.91;55.16;101708.34;6226687;23;20012;-90
2022/02/12 12:12:32;;;;;;;12.63;3.40;;;;;;;6.88;55.02;101696.09;6247019;23;20301;-91
2022/02/12 12:15:46;;;;;;;6.25;3.10;;;;;;;7.03;54.31;101731.91;6253656;23;20020;-95
2022/02/12 12:18:29;;;;;;;7.60;2.72;;;;;;;7.06;54.34;101695.00;6259757;23;20043;-96
2022/02/12 12:21:14;;;;;;;6.82;3.10;;;;;;;7.02;54.08;101649.38;6253049;23;20317;-94
2022/02/12 12:24:01;;;;;;;6.75;2.60;;;;;;;7.15;52.64;101649.22;6249124;23;20104;-96
2022/02/12 12:26:46;;;;;;;9.75;2.95;;;;;;;7.66;53.02;101692.44;6248753;23;20028;-91
2022/02/12 12:32:24;;;;;;;7.80;2.80;;;;;;;7.43;52.64;101660.25;6231083;23;20095;-93
2022/02/12 12:35:00;;;;;;;6.22;3.00;;;;;;;7.88;52.60;101695.63;6247188;23;20030;-91
2022/02/12 12:37:37;;;;;;;8.65;3.22;;;;;;;7.97;52.08;101651.53;6247420;23;20020;-91
2022/02/12 12:40:13;;;;;;;13.15;2.78;;;;;;;8.44;50.19;101682.44;6246217;23;20055;-95
2022/02/12 12:43:00;;;;;;;7.68;3.13;;;;;;;8.36;49.58;101655.28;6247802;23;20108;-95
2022/02/12 12:45:40;;;;;;;7.28;2.65;;;;;;;8.29;49.17;101644.84;6245396;23;20048;-95
2022/02/12 12:48:13;;;;;;;4.82;2.30;;;;;;;8.29;48.63;101613.19;6244642;23;20028;-91
2022/02/12 12:50:44;;;;;;;;;;;;;;;8.63;47.48;101655.69;6247252;23;20375;-91
2022/02/12 12:53:30;;;;;;;7.68;2.72;;;;;;;8.51;47.58;101590.78;6249554;23;19922;-95
2022/02/12 12:59:52;;;;;;;7.40;2.53;;;;;;;9.85;46.32;101631.00;6245849;23;20103;-89
2022/02/12 13:02:22;;;;;;;4.93;2.45;;;;;;;10.27;44.81;101612.31;6248639;23;20098;-88
2022/02/12 13:04:54;;;;;;;6.45;2.50;;;;;;;10.79;42.70;101616.19;6197218;22;20086;-90
2022/02/12 13:07:27;;;;;;;8.55;2.60;;;;;;;10.88;41.70;101579.69;6248361;23;20024;-89
2022/02/12 13:09:58;;;;;;;6.38;2.50;;;;;;;10.36;43.11;101560.91;6248607;23;20043;-90
2022/02/12 13:12:37;;;;;;;4.85;2.45;;;;;;;10.63;42.64;101580.44;6253218;23;20036;-94
2022/02/12 13:15:10;;;;;;;3.78;2.20;;;;;;;11.20;41.90;101609.66;6260239;23;20309;-91
2022/02/12 13:17:40;;;;;;;7.20;2.95;;;;;;;11.39;40.47;101565.75;6253121;23;20498;-90
2022/02/12 13:20:17;;;;;;;4.35;2.30;;;;;;;11.96;39.72;101570.13;6247822;23;20027;-90
2022/02/12 13:23:03;;;;;;;5.63;2.55;;;;;;;12.23;38.23;101521.34;6224274;23;20020;-90
2022/02/12 13:25:48;;;;;;;4.47;2.00;;;;;;;12.86;37.08;101516.38;6249357;23;20083;-89
2022/02/12 13:28:53;;;;;;;;;;;;;;;13.46;36.39;101574.28;6243656;22;20023;-89
2022/02/12 13:31:49;;;;;;;;;;;;;;;;;;;;;
2022/02/12 13:34:31;;;;;;;3.97;2.10;;;;;;;13.19;35.97;101535.47;6186841;23;20437;-89
2022/02/12 13:40:53;;;;;;;4.60;1.95;;;;;;;12.13;37.07;101532.34;6100773;23;19963;-88
2022/02/12 13:43:28;;;;;;;5.50;1.88;;;;;;;11.69;38.77;101553.28;6098614;23;20018;-90
2022/02/12 13:45:58;;;;;;;5.50;2.92;;;;;;;11.02;39.41;101552.75;6092541;23;20077;-89
2022/02/12 13:48:39;;;;;;;5.88;2.88;;;;;;;10.31;40.94;101553.09;6098244;23;20502;-92
2022/02/12 13:51:11;;;;;;;7.40;2.72;;;;;;;10.10;41.60;101532.44;6099523;23;20027;-89
2022/02/12 13:53:48;;;;;;;;;;;;;;;10.11;41.68;101539.47;6099782;23;20018;-89
2022/02/12 13:56:53;;;;;;;3.63;2.08;;;;;;;9.69;42.39;101502.66;6099315;23;19998;-89
2022/02/12 13:59:21;;;;;;;4.22;2.05;;;;;;;9.65;43.59;101521.28;6098350;23;20029;-89
2022/02/12 14:01:53;;;;;;;4.53;2.50;;;;;;;9.37;42.62;101458.53;6100916;23;20026;-89
2022/02/12 14:04:23;;;;;;;6.72;2.10;;;;;;;9.66;43.69;101518.59;6101100;23;20020;-89
2022/02/12 14:06:52;;;;;;;5.38;2.47;;;;;;;9.39;43.79;101450.56;6099773;23;20018;-89
2022/02/12 14:09:33;;;;;;;;;;;;;;;9.79;43.98;101514.72;6080788;23;20029;-89
2022/02/12 14:11:59;;;;;;;5.07;2.25;;;;;;;9.83;43.15;101518.19;6097038;23;19917;-88
2022/02/12 14:14:26;;;;;;;7.63;2.38;;;;;;;9.69;43.05;101488.56;6096448;23;20022;-89
2022/02/12 14:16:54;;;;;;;7.53;2.63;;;;;;;9.55;43.63;101488.94;6096389;23;20101;-90
2022/02/12 14:19:21;;;;;;;4.43;2.53;;;;;;;9.40;44.02;101482.25;6095902;23;20014;-89
2022/02/12 14:21:48;;;;;;;5.60;2.95;;;;;;;9.27;44.39;101472.88;6095705;23;20018;-91
2022/02/12 14:24:16;;;;;;;4.35;2.38;;;;;;;9.15;44.81;101478.44;6098621;23;20023;-89
2022/02/12 14:26:45;;;;;;;7.45;2.35;;;;;;;9.20;44.75;101497.72;6094500;23;20042;-90
2022/02/12 14:29:26;;;;;;;6.05;2.83;;;;;;;8.78;45.65;101495.16;6095095;23;20029;-90
2022/02/12 14:31:59;;;;;;;4.03;2.20;;;;;;;8.59;45.85;101470.06;6096182;23;20132;-89
2022/02/12 14:34:27;;;;;;;6.63;3.40;;;;;;;8.40;46.62;101445.81;6095385;23;20014;-89
2022/02/12 14:36:54;;;;;;;4.35;2.42;;;;;;;8.23;47.34;101437.34;6093272;23;20025;-90
2022/02/12 14:39:24;;;;;;;3.67;2.22;;;;;;;8.44;46.96;101451.91;6093149;23;20048;-90
2022/02/12 14:41:51;;;;;;;5.38;2.63;;;;;;;8.57;47.20;101469.22;6094093;23;20026;-89
2022/02/12 14:44:18;;;;;;;5.97;2.65;;;;;;;8.52;46.79;101467.56;6094259;23;20024;-90
2022/02/12 14:46:45;;;;;;;7.22;2.95;;;;;;;8.57;46.94;101463.06;6093608;23;20032;-92
2022/02/12 14:49:19;;;;;;;5.97;2.58;;;;;;;8.53;46.56;101456.97;6096562;23;20070;-88
2022/02/12 14:51:51;;;;;;;6.28;2.50;;;;;;;8.51;47.06;101452.63;6096343;23;20065;-95
2022/02/12 14:54:20;;;;;;;7.32;2.83;;;;;;;8.33;47.01;101425.75;6103436;23;20070;-93
2022/02/12 14:56:50;;;;;;;5.32;2.70;;;;;;;8.30;46.82;101422.28;6100646;23;20109;-93
2022/02/12 14:59:20;;;;;;;4.20;2.63;;;;;;;7.99;47.79;101391.25;6101973;23;20046;-91
2022/02/12 15:01:50;;;;;;;5.70;2.92;;;;;;;7.95;47.08;101408.03;6099241;23;20438;-95
2022/02/12 15:04:30;;;;;;;5.03;2.78;;;;;;;7.94;48.39;101419.47;6100128;23;20014;-94
2022/02/12 15:07:31;;;;;;;7.43;2.55;;;;;;;7.78;48.92;101401.34;6095497;23;20022;-95
2022/02/12 15:10:06;;;;;;;4.47;2.63;;;;;;;7.84;48.70;101417.06;6070905;23;20022;-93
2022/02/12 15:12:33;;;;;;;6.00;2.90;;;;;;;7.69;49.35;101397.13;6092493;23;20034;-90
2022/02/12 15:15:00;;;;;;;8.75;2.80;;;;;;;7.84;49.31;101422.34;6090380;23;20019;-90
2022/02/12 15:17:27;;;;;;;6.60;3.13;;;;;;;7.57;49.90;101387.66;6092428;23;20026;-90
2022/02/12 15:19:56;;;;;;;10.48;3.10;;;;;;;7.70;49.82;101415.56;6091243;23;20101;-91
2022/02/12 15:22:24;;;;;;;8.65;3.20;;;;;;;7.59;49.80;101416.63;6069637;23;20026;-92
2022/02/12 15:24:56;;;;;;;5.30;2.80;;;;;;;7.39;50.05;101391.53;6093774;23;20014;-93
2022/02/12 15:27:24;;;;;;;7.45;3.10;;;;;;;7.62;50.68;101433.28;6088071;23;20362;-90
2022/02/12 15:29:53;;;;;;;7.43;3.42;;;;;;;7.58;51.05;101433.34;6089886;23;20042;-90
2022/02/12 15:32:19;;;;;;;6.78;3.17;;;;;;;7.32;50.87;101392.53;6090927;23;20019;-90
2022/02/12 15:34:47;;;;;;;5.28;3.35;;;;;;;7.26;51.65;101397.91;6093504;23;20015;-92
2022/02/12 15:37:14;;;;;;;6.05;3.20;;;;;;;7.32;51.71;101413.63;6090626;23;20085;-94
2022/02/12 15:39:48;;;;;;;7.10;3.22;;;;;;;7.02;52.11;101372.00;6087388;23;20026;-90
2022/02/12 15:42:18;;;;;;;7.32;3.15;;;;;;;7.12;52.35;101393.75;6094966;23;20024;-89
2022/02/12 15:44:55;;;;;;;;;;;;;;;;;;;;;
2022/02/12 15:50:02;;;;;;;7.50;3.42;;;;;;;6.78;53.18;101351.31;6220416;22;20131;-94
2022/02/12 15:52:40;;;;;;;6.05;3.47;;;;;;;6.72;53.65;101356.69;6252496;23;20019;-91
2022/02/12 15:55:16;;;;;;;7.45;3.63;;;;;;;6.95;53.74;101396.69;6243918;23;20024;-93
2022/02/12 15:57:55;;;;;;;8.23;3.75;;;;;;;6.47;54.27;101324.63;6219003;23;20076;-90
2022/02/12 16:00:26;;;;;;;7.57;3.50;;;;;;;6.81;54.23;101394.25;6250756;23;20020;-89
2022/02/12 16:03:07;;;;;;;6.72;3.55;;;;;;;6.70;54.50;101359.34;6253189;23;20076;-90
2022/02/12 16:05:35;;;;;;;6.60;3.78;;;;;;;6.51;54.53;101345.59;6249254;23;20031;-93
2022/02/12 16:08:03;;;;;;;8.13;3.72;;;;;;;6.49;54.48;101334.22;6261394;22;20375;-91
2022/02/12 16:10:37;;;;;;;8.25;3.70;;;;;;;6.45;54.91;101343.09;6183217;23;20099;-89
2022/02/12 16:16:11;;;;;;;5.93;4.00;;;;;;;6.23;55.28;101321.47;6234536;22;20027;-90
2022/02/12 16:18:54;;;;;;;6.90;3.58;;;;;;;6.16;55.79;101329.44;6220966;23;20042;-90
2022/02/12 16:21:22;;;;;;;7.85;3.60;;;;;;;6.08;56.29;101326.94;6197141;23;20501;-89
2022/02/12 16:24:13;;;;;;;7.97;3.83;;;;;;;5.99;56.20;101319.16;6226457;23;20032;-94
2022/02/12 16:26:47;;;;;;;;;;;;;;;6.12;56.84;101354.94;6222082;23;20087;-89
2022/02/12 16:29:17;;;;;;;8.18;3.97;;;;;;;5.89;57.58;101331.56;6218242;23;19919;-89
2022/02/12 16:32:09;;;;;;;8.98;4.35;;;;;;;6.00;57.54;101349.81;6219688;23;20039;-93
2022/02/12 16:34:58;;;;;;;5.85;3.70;;;;;;;5.95;57.65;101360.44;6220899;23;20021;-89
2022/02/12 16:37:25;;;;;;;7.20;3.90;;;;;;;5.89;58.08;101360.50;6218728;23;20017;-90
2022/02/12 16:39:54;;;;;;;7.65;4.07;;;;;;;5.62;58.65;101321.38;6217838;23;20043;-95
2022/02/12 16:42:30;;;;;;;8.68;4.10;;;;;;;5.74;59.26;101357.16;6222180;23;20019;-92
2022/02/12 16:44:58;;;;;;;8.20;4.03;;;;;;;5.42;58.86;101316.34;6219921;23;20095;-89
2022/02/12 16:47:28;;;;;;;9.65;4.68;;;;;;;5.42;59.24;101318.97;6220078;23;20025;-92
2022/02/12 16:50:09;;;;;;;9.80;5.13;;;;;;;5.31;60.43;101288.47;6220368;23;20025;-88
2022/02/12 16:52:37;;;;;;;8.45;4.45;;;;;;;5.48;59.13;101321.53;6222744;23;20025;-89
2022/02/12 16:55:07;;;;;;;7.53;4.60;;;;;;;5.58;59.22;101352.06;6221534;23;20495;-93
2022/02/12 16:57:39;;;;;;;9.43;5.30;;;;;;;5.35;59.79;101321.69;6220933;23;20021;-90
2022/02/12 17:00:11;;;;;;;9.52;5.47;;;;;;;5.48;60.14;101358.31;6217761;23;20047;-90
2022/02/12 17:02:47;;;;;;;10.15;5.20;;;;;;;5.13;60.77;101308.78;6220248;23;20017;-87
2022/02/12 17:05:22;;;;;;;10.50;5.10;;;;;;;5.14;60.54;101328.03;6220200;23;20075;-90
2022/02/12 17:07:59;;;;;;;9.15;5.40;;;;;;;5.02;61.06;101322.91;6219314;23;20025;-92
2022/02/12 17:10:26;;;;;;;9.05;4.97;;;;;;;5.02;61.40;101326.41;6219841;23;20032;-89
2022/02/12 17:12:56;;;;;;;9.68;4.57;;;;;;;4.96;61.70;101321.19;6222933;23;20025;-91
2022/02/12 17:15:30;;;;;;;9.35;5.40;;;;;;;5.06;62.48;101354.34;6221494;23;20028;-90
2022/02/12 17:17:57;;;;;;;9.27;4.82;;;;;;;5.04;61.87;101350.84;6218408;23;20025;-89
2022/02/12 17:20:34;;;;;;;7.78;4.40;;;;;;;4.98;62.20;101339.56;6220760;23;20024;-91
2022/02/12 17:23:01;;;;;;;8.65;4.40;;;;;;;5.04;61.94;101353.47;6220319;23;20055;-89
2022/02/12 17:25:30;;;;;;;8.20;3.72;;;;;;;4.99;62.00;101349.19;6221738;23;20083;-90
2022/02/12 17:28:02;;;;;;;9.38;4.45;;;;;;;4.86;62.43;101336.19;6216982;23;20028;-92
2022/02/12 17:30:42;;;;;;;8.75;4.57;;;;;;;4.86;62.72;101349.28;6220968;23;20025;-90
2022/02/12 17:33:12;;;;;;;7.40;4.28;;;;;;;4.85;61.85;101342.31;6221291;23;20176;-89
2022/02/12 17:35:39;;;;;;;8.43;5.18;;;;;;;4.95;62.07;101356.19;6199396;23;20027;-90
2022/02/12 17:38:36;;;;;;;11.68;5.25;;;;;;;4.54;61.73;101294.47;6235059;22;20005;-93
2022/02/12 17:41:44;;;;;;;12.65;7.03;;;;;;;4.44;62.30;101277.03;6027078;23;20024;-93
2022/02/12 17:44:37;;;;;;;9.50;4.30;;;;;;;4.71;61.34;101315.31;6103026;23;20034;-90
2022/02/12 17:47:24;;;;;;;9.75;4.15;;;;;;;4.93;60.65;101337.84;6101995;23;20033;-90
2022/02/12 17:49:58;;;;;;;;;;;;;;;4.94;60.52;101331.72;6103445;23;20069;-91
2022/02/12 17:53:05;;;;;;;7.22;3.88;;;;;;;4.93;60.51;101318.59;6085205;23;20408;-93
2022/02/12 17:56:10;;;;;;;6.85;3.70;;;;;;;4.80;60.81;101319.59;6101789;23;20023;-91
2022/02/12 17:58:59;;;;;;;;;;;;;;;;;;;;;
2022/02/12 18:01:47;;;;;;;7.57;4.43;;;;;;;4.34;62.11;101271.88;6093071;23;20027;-96
2022/02/12 18:04:28;;;;;;;8.35;4.25;;;;;;;4.56;62.51;101318.06;6100040;23;20346;-91
2022/02/12 18:07:13;;;;;;;8.32;4.60;;;;;;;4.15;62.85;101252.78;6101991;23;20038;-95
2022/02/12 18:09:56;;;;;;;8.55;5.15;;;;;;;4.11;63.54;101258.94;6108830;23;20075;-91
2022/02/12 18:12:30;;;;;;;10.48;5.00;;;;;;;4.19;63.30;101276.34;6077607;23;20455;-92
2022/02/12 18:15:03;;;;;;;8.63;4.85;;;;;;;4.17;64.17;101279.88;6103211;23;20102;-93
2022/02/12 18:17:42;;;;;;;10.80;5.50;;;;;;;4.37;64.02;101308.56;6163788;23;20044;-92
2022/02/12 18:20:14;;;;;;;14.32;5.70;;;;;;;4.19;65.09;101281.59;6193083;23;20017;-94
2022/02/12 18:22:57;;;;;;;13.20;6.30;;;;;;;3.90;64.80;101244.22;6169294;23;20021;-92
2022/02/12 18:25:38;;;;;;;;;;;;;;;;;;;;;
2022/02/12 18:28:08;;;;;;;12.52;6.25;;;;;;;3.95;64.95;101239.81;6192327;23;20032;-94
2022/02/12 18:31:06;;;;;;;10.48;5.40;;;;;;;4.03;65.14;101255.50;6199329;23;20031;-96
2022/02/12 18:33:35;;;;;;;15.20;7.47;;;;;;;4.05;65.75;101261.59;6176530;23;20021;-94
2022/02/12 18:36:04;;;;;;;13.25;6.43;;;;;;;3.99;65.23;101256.41;6192069;23;20032;-90
2022/02/12 18:38:34;;;;;;;15.68;6.90;;;;;;;3.91;65.42;101252.97;6191764;23;20100;-92
2022/02/12 18:41:06;;;;;;;12.88;6.68;;;;;;;3.80;66.07;101258.25;6194245;23;20079;-92
2022/02/12 18:43:37;;;;;;;12.00;6.18;;;;;;;3.91;66.78;101280.03;6190138;23;20025;-92
2022/02/12 18:46:07;;;;;;;12.20;6.18;;;;;;;3.55;66.59;101223.47;6190684;23;20031;-92
2022/02/12 18:48:47;;;;;;;12.18;6.40;;;;;;;3.64;66.84;101260.06;6195456;23;20073;-94
2022/02/12 18:51:35;;;;;;;13.57;6.65;;;;;;;3.54;67.43;101255.78;6194546;23;20017;-94
2022/02/12 18:54:05;;;;;;;12.68;6.68;;;;;;;3.48;67.56;101251.41;6193540;23;20028;-93
2022/02/12 18:56:53;;;;;;;10.85;6.45;;;;;;;3.25;68.30;101221.00;6191329;23;20079;-93
2022/02/12 18:59:44;;;;;;;14.23;6.90;;;;;;;3.30;68.28;101238.44;6190045;23;20064;-96
2022/02/12 19:02:16;;;;;;;15.02;7.00;;;;;;;3.28;69.24;101236.69;6191939;23;20032;-93
2022/02/12 19:05:06;;;;;;;12.73;6.35;;;;;;;3.20;69.27;101225.38;6191970;23;20036;-94
2022/02/12 19:08:12;;;;;;;15.20;7.00;;;;;;;3.38;70.15;101260.19;6193490;23;20024;-94
2022/02/12 19:10:44;;;;;;;10.90;6.30;;;;;;;3.35;69.92;101257.59;6190753;23;20320;-94
2022/02/12 19:13:16;;;;;;;;;;;;;;;3.30;70.62;101250.66;6192824;23;20044;-93
2022/02/12 19:16:22;;;;;;;15.57;7.18;;;;;;;2.83;71.14;101181.88;6168051;23;20220;-94
2022/02/12 19:18:59;;;;;;;13.13;7.05;;;;;;;3.07;71.49;101224.53;6151332;23;20386;-93
2022/02/12 19:21:49;;;;;;;10.35;6.20;;;;;;;2.92;71.47;101204.53;6132695;23;20056;-94
2022/02/12 19:24:30;;;;;;;14.98;7.68;;;;;;;2.89;72.84;101207.16;6131647;23;20062;-91
2022/02/12 19:27:01;;;;;;;16.52;7.90;;;;;;;3.05;72.37;101240.25;6132793;23;20378;-92
2022/02/12 19:29:42;;;;;;;14.93;8.18;;;;;;;2.63;73.37;101177.59;6152518;23;20022;-93
2022/02/12 19:32:29;;;;;;;13.70;7.75;;;;;;;2.94;73.73;101243.78;6133323;23;20029;-93
2022/02/12 19:35:12;;;;;;;16.63;9.20;;;;;;;2.63;74.55;101195.88;6133525;23;20022;-92
2022/02/12 19:37:52;;;;;;;17.35;9.50;;;;;;;2.80;74.68;101233.34;6133195;23;20018;-91
2022/02/12 19:40:36;;;;;;;19.75;10.25;;;;;;;2.43;75.02;101175.88;6131949;23;20442;-93
2022/02/12 19:43:21;;;;;;;21.73;11.93;;;;;;;2.49;75.18;101195.03;6131767;23;20053;-92
2022/02/12 19:45:56;;;;;;;25.27;11.48;;;;;;;2.42;75.47;101183.72;6131766;23;20032;-92
2022/02/12 19:48:27;;;;;;;23.38;12.40;;;;;;;2.41;75.75;101193.28;6133141;23;20056;-92
2022/02/12 19:51:03;;;;;;;26.98;12.32;;;;;;;2.32;75.91;101185.47;6132551;23;20079;-91
2022/02/12 19:54:05;;;;;;;21.77;11.52;;;;;;;2.18;76.13;101150.66;6133806;23;20021;-93
2022/02/12 19:57:28;;;;;;;19.38;11.02;;;;;;;2.47;76.76;101195.91;6132940;23;20082;-92
2022/02/12 20:00:17;;;;;;;28.10;13.45;;;;;;;2.50;76.05;101195.03;6132271;23;20054;-92
2022/02/12 20:02:51;;;;;;;29.45;13.75;;;;;;;2.46;76.43;101198.53;6131276;23;20021;-92
2022/02/12 20:05:56;;;;;;;24.90;13.52;;;;;;;2.11;76.95;101141.06;6132138;23;20022;-94
2022/02/12 20:08:31;;;;;;;26.65;14.40;;;;;;;2.12;76.83;101145.41;6135092;23;20018;-91
2022/02/12 20:11:17;;;;;;;30.30;15.10;;;;;;;2.05;77.38;101144.53;6134013;23;20070;-91
2022/02/12 20:13:53;;;;;;;30.30;16.42;;;;;;;2.27;77.12;101186.34;6133929;23;20041;-92
2022/02/12 20:16:24;;;;;;;34.13;18.38;;;;;;;2.21;77.21;101176.75;6154617;23;20022;-92
2022/02/12 20:19:06;;;;;;;33.33;17.73;;;;;;;2.29;76.97;101206.38;6191061;23;20025;-90
2022/02/12 20:21:37;;;;;;;;;;;;;;;2.28;77.43;101204.63;6188989;23;20019;-92
2022/02/12 20:24:07;;;;;;;33.37;17.10;;;;;;;2.10;78.18;101188.94;6189828;23;19927;-94
2022/02/12 20:26:49;;;;;;;32.45;17.60;;;;;;;2.18;78.47;101208.13;6190452;23;20352;-92